West Renovo, Pennsylvania
Current Conditions -  °F | °C
As of 4:35 AM on Friday 24 Oct 2014 (Local Time) from KN38 Reporting Station
Overcast Overcast  
Wind Chill: 43°   Ceiling: 2500
Heat Index: 48°   Visibility: 10mi
Dew Point: 41°   Wind: 12mph
Humidity: 76%   Direction: 320°NW
Pressure: 29.97"   Gusts: NA
Location:  41.3916°N, 77.7796°W
Report Text: KN38 240835Z AUTO 32010KT 10SM BKN025 OVC034 09/05 A2997 RMK AO2
Loading
Personal Weather Stations






























Interactive Weather Map
Tropical Storm Tracking
New forecast layout! Learn more

10-Day Weather Forecast

Advertisements
Track Severe Weather on mobile